createdAt,value
2023-03-28T00:08:56.118Z,3.43
2023-03-28T00:19:06.041Z,3.00
2023-03-28T00:29:21.482Z,3.50
2023-03-28T00:39:28.018Z,3.60
2023-03-28T00:49:37.932Z,3.40
2023-03-28T00:59:43.339Z,3.90
2023-03-28T01:09:46.832Z,3.20
2023-03-28T01:20:08.754Z,3.07
2023-03-28T01:31:05.672Z,3.63
2023-03-28T01:41:42.121Z,4.10
2023-03-28T01:52:21.881Z,3.53
2023-03-28T02:02:30.423Z,3.87
2023-03-28T02:12:49.600Z,3.90
2023-03-28T02:23:24.658Z,5.20
2023-03-28T02:33:59.774Z,8.77
2023-03-28T02:44:11.334Z,7.13
2023-03-28T02:54:30.652Z,5.90
2023-03-28T03:05:02.193Z,6.30
2023-03-28T03:15:05.598Z,5.13
2023-03-28T03:25:36.894Z,4.43
2023-03-28T03:35:56.618Z,4.93
2023-03-28T03:46:00.819Z,4.43
2023-03-28T03:56:10.934Z,3.90
2023-03-28T04:06:31.398Z,4.97
2023-03-28T04:16:45.186Z,5.77
2023-03-28T04:26:50.418Z,6.70
2023-03-28T04:37:02.002Z,5.20
2023-03-28T04:47:15.510Z,4.20
2023-03-28T04:57:18.187Z,3.80
2023-03-28T05:07:26.641Z,3.70
2023-03-28T05:17:32.349Z,3.90
2023-03-28T05:27:53.290Z,4.87
2023-03-28T05:37:56.149Z,5.57
2023-03-28T05:48:06.505Z,8.57
2023-03-28T05:58:11.974Z,7.40
2023-03-28T06:08:15.834Z,7.83
2023-03-28T06:18:20.554Z,7.87
2023-03-28T06:28:26.601Z,8.60
2023-03-28T06:38:53.762Z,8.93
2023-03-28T06:48:58.956Z,8.47
2023-03-28T06:59:04.327Z,9.83
2023-03-28T07:09:12.726Z,9.50
2023-03-28T07:19:23.821Z,9.60
2023-03-28T07:29:30.046Z,9.30
2023-03-28T07:39:40.025Z,8.87
2023-03-28T07:49:50.512Z,9.97
2023-03-28T07:59:53.142Z,9.03
2023-03-28T08:09:59.075Z,8.77
2023-03-28T08:20:11.402Z,7.17
2023-03-28T08:30:19.217Z,6.30
2023-03-28T08:40:30.370Z,5.63
2023-03-28T08:50:51.019Z,4.53
2023-03-28T09:00:58.567Z,4.10
2023-03-28T09:11:29.909Z,3.47
2023-03-28T09:22:04.965Z,3.60
2023-03-28T09:32:22.791Z,3.73
2023-03-28T09:42:45.292Z,6.23
2023-03-28T09:53:38.210Z,7.53
2023-03-28T10:03:52.751Z,8.73
2023-03-28T10:13:57.593Z,7.23
2023-03-28T10:24:10.309Z,5.13
2023-03-28T10:34:28.987Z,4.60
2023-03-28T10:44:41.237Z,4.47
2023-03-28T10:54:51.752Z,2.83
2023-03-28T11:05:26.292Z,3.27
2023-03-28T11:15:46.486Z,3.17
2023-03-28T11:26:28.196Z,2.70
2023-03-28T11:37:29.181Z,1.60
2023-03-28T11:47:37.433Z,2.00
2023-03-28T11:57:57.350Z,2.27
2023-03-28T12:08:08.442Z,2.00
2023-03-28T12:18:34.653Z,1.83
2023-03-28T12:28:46.260Z,1.40
2023-03-28T12:39:21.654Z,1.37
2023-03-28T12:49:42.535Z,1.90
2023-03-28T13:00:07.769Z,1.10
2023-03-28T13:11:13.397Z,1.50
2023-03-28T13:21:53.345Z,1.30
2023-03-28T13:32:03.887Z,1.20
2023-03-28T13:42:32.392Z,1.97
2023-03-28T13:52:38.325Z,1.47
2023-03-28T14:02:49.450Z,1.57
2023-03-28T14:12:53.092Z,1.40
2023-03-28T14:23:01.007Z,1.50
2023-03-28T14:33:22.637Z,1.70
2023-03-28T14:43:32.026Z,2.10
2023-03-28T14:53:42.385Z,1.60
2023-03-28T15:03:46.799Z,1.83
2023-03-28T15:14:05.185Z,1.57
2023-03-28T15:24:14.290Z,1.40
2023-03-28T15:34:27.558Z,1.60
2023-03-28T15:44:38.274Z,1.70
2023-03-28T15:54:47.111Z,1.33
2023-03-28T16:05:07.326Z,2.10
2023-03-28T16:15:17.276Z,0.87
2023-03-28T16:25:33.262Z,1.60
2023-03-28T16:35:35.876Z,1.83
2023-03-28T16:45:38.825Z,1.77
2023-03-28T16:55:46.534Z,1.50
2023-03-28T17:05:48.973Z,1.90
2023-03-28T17:15:53.577Z,1.80
2023-03-28T17:25:58.220Z,1.60
2023-03-28T17:36:15.067Z,2.03
2023-03-28T17:46:21.877Z,1.70
2023-03-28T17:56:28.917Z,2.30
2023-03-28T18:06:35.445Z,1.37
2023-03-28T18:16:39.108Z,1.73
2023-03-28T18:26:41.811Z,2.47
2023-03-28T18:36:51.581Z,2.53
2023-03-28T18:46:55.696Z,3.17
2023-03-28T18:57:03.533Z,2.63
2023-03-28T19:07:10.923Z,2.33
2023-03-28T19:17:17.987Z,2.20
2023-03-28T19:27:23.897Z,3.13
2023-03-28T19:37:38.094Z,2.87
2023-03-28T19:47:46.223Z,3.53
2023-03-28T19:57:54.735Z,3.10
2023-03-28T20:07:57.433Z,2.47
2023-03-28T20:18:10.485Z,3.10
2023-03-28T20:28:18.515Z,2.40
2023-03-28T20:38:24.652Z,2.50
2023-03-28T20:48:36.775Z,3.20
2023-03-28T20:58:40.546Z,2.53
2023-03-28T21:08:46.060Z,2.77
2023-03-28T21:18:48.831Z,2.67
2023-03-28T21:28:57.017Z,2.77
2023-03-28T21:39:05.393Z,3.03
2023-03-28T21:49:09.769Z,2.20
2023-03-28T21:59:24.214Z,2.77
2023-03-28T22:09:28.330Z,2.17
2023-03-28T22:19:31.727Z,2.40
2023-03-28T22:29:34.673Z,2.27
2023-03-28T22:39:43.082Z,1.77
2023-03-28T22:49:47.312Z,2.17
2023-03-28T22:59:55.823Z,2.10
2023-03-28T23:10:04.119Z,2.20
2023-03-28T23:20:13.133Z,1.97
2023-03-28T23:30:17.593Z,3.30
2023-03-28T23:40:23.617Z,2.50
2023-03-28T23:50:29.809Z,2.80
